sensor_id;sensor_type;location;lat;lon;timestamp;pressure;altitude;pressure_sealevel;temperature;humidity
66857;BME280;53766;50.280;19.160;2023-10-09T00:01:07;99362.94;;;17.17;53.55
66857;BME280;53766;50.280;19.160;2023-10-09T00:03:46;99357.78;;;17.15;53.57
66857;BME280;53766;50.280;19.160;2023-10-09T00:06:21;99352.44;;;17.15;53.58
66857;BME280;53766;50.280;19.160;2023-10-09T00:08:58;99361.44;;;17.14;53.48
66857;BME280;53766;50.280;19.160;2023-10-09T00:11:25;99364.13;;;17.14;53.67
66857;BME280;53766;50.280;19.160;2023-10-09T00:13:57;99369.44;;;17.14;53.49
66857;BME280;53766;50.280;19.160;2023-10-09T00:16:25;99350.81;;;17.14;53.51
66857;BME280;53766;50.280;19.160;2023-10-09T00:19:02;99346.47;;;17.13;53.52
66857;BME280;53766;50.280;19.160;2023-10-09T00:21:52;99341.16;;;17.13;53.60
66857;BME280;53766;50.280;19.160;2023-10-09T00:24:22;99340.31;;;17.13;53.52
66857;BME280;53766;50.280;19.160;2023-10-09T00:26:51;99336.84;;;17.12;53.57
66857;BME280;53766;50.280;19.160;2023-10-09T00:29:19;99326.19;;;17.12;53.50
66857;BME280;53766;50.280;19.160;2023-10-09T00:34:17;99321.84;;;17.11;53.52
66857;BME280;53766;50.280;19.160;2023-10-09T00:36:46;99311.22;;;17.11;53.53
66857;BME280;53766;50.280;19.160;2023-10-09T00:39:18;99295.44;;;17.10;53.60
66857;BME280;53766;50.280;19.160;2023-10-09T00:42:15;99270.63;;;17.09;53.61
66857;BME280;53766;50.280;19.160;2023-10-09T00:44:49;99259.97;;;17.09;53.70
66857;BME280;53766;50.280;19.160;2023-10-09T00:47:17;99274.31;;;17.08;53.64
66857;BME280;53766;50.280;19.160;2023-10-09T00:49:52;99274.31;;;17.08;53.51
66857;BME280;53766;50.280;19.160;2023-10-09T00:52:38;99251.34;;;17.07;53.63
66857;BME280;53766;50.280;19.160;2023-10-09T00:55:17;99244.22;;;17.08;53.58
66857;BME280;53766;50.280;19.160;2023-10-09T00:57:49;99222.91;;;17.08;53.60
66857;BME280;53766;50.280;19.160;2023-10-09T01:00:25;99223.91;;;17.06;53.57
66857;BME280;53766;50.280;19.160;2023-10-09T01:02:59;99241.72;;;17.06;53.55
66857;BME280;53766;50.280;19.160;2023-10-09T01:05:56;99245.41;;;17.05;53.61
66857;BME280;53766;50.280;19.160;2023-10-09T01:08:30;99244.38;;;17.06;53.59
66857;BME280;53766;50.280;19.160;2023-10-09T01:13:37;99264.84;;;17.05;53.65
66857;BME280;53766;50.280;19.160;2023-10-09T01:16:21;99263.16;;;17.04;53.71
66857;BME280;53766;50.280;19.160;2023-10-09T01:18:51;99254.38;;;17.04;53.62
66857;BME280;53766;50.280;19.160;2023-10-09T01:21:20;99246.38;;;17.04;53.64
66857;BME280;53766;50.280;19.160;2023-10-09T01:23:58;99257.03;;;17.04;53.62
66857;BME280;53766;50.280;19.160;2023-10-09T01:26:37;99245.56;;;17.03;53.67
66857;BME280;53766;50.280;19.160;2023-10-09T01:29:22;99243.72;;;17.04;53.61
66857;BME280;53766;50.280;19.160;2023-10-09T01:31:52;99243.06;;;17.02;53.69
66857;BME280;53766;50.280;19.160;2023-10-09T01:34:22;99250.06;;;17.03;53.76
66857;BME280;53766;50.280;19.160;2023-10-09T01:37:06;99249.41;;;17.01;53.62
66857;BME280;53766;50.280;19.160;2023-10-09T01:39:39;99253.72;;;17.02;53.68
66857;BME280;53766;50.280;19.160;2023-10-09T01:42:09;99264.34;;;17.02;53.60
66857;BME280;53766;50.280;19.160;2023-10-09T01:44:37;99263.53;;;17.01;53.63
66857;BME280;53766;50.280;19.160;2023-10-09T01:47:10;99252.06;;;17.01;53.61
66857;BME280;53766;50.280;19.160;2023-10-09T01:49:41;99246.75;;;17.01;53.68
66857;BME280;53766;50.280;19.160;2023-10-09T01:52:11;99252.06;;;17.01;53.61
66857;BME280;53766;50.280;19.160;2023-10-09T01:54:43;99253.06;;;17.00;53.81
66857;BME280;53766;50.280;19.160;2023-10-09T01:57:19;99256.53;;;17.00;53.51
66857;BME280;53766;50.280;19.160;2023-10-09T01:59:50;99253.06;;;17.00;53.71
66857;BME280;53766;50.280;19.160;2023-10-09T02:02:21;99243.44;;;16.99;53.63
66857;BME280;53766;50.280;19.160;2023-10-09T02:05:02;99231.94;;;16.98;53.73
66857;BME280;53766;50.280;19.160;2023-10-09T02:07:41;99221.28;;;16.98;53.65
66857;BME280;53766;50.280;19.160;2023-10-09T02:10:12;99214.16;;;16.99;53.59
66857;BME280;53766;50.280;19.160;2023-10-09T02:12:59;99211.50;;;16.99;53.76
66857;BME280;53766;50.280;19.160;2023-10-09T02:15:27;99203.69;;;16.97;53.62
66857;BME280;53766;50.280;19.160;2023-10-09T02:18:20;99201.84;;;16.98;53.61
66857;BME280;53766;50.280;19.160;2023-10-09T02:20:51;99192.22;;;16.97;53.77
66857;BME280;53766;50.280;19.160;2023-10-09T02:23:39;99194.06;;;16.96;53.67
66857;BME280;53766;50.280;19.160;2023-10-09T02:26:24;99190.53;;;16.96;53.66
66857;BME280;53766;50.280;19.160;2023-10-09T02:29:07;99195.88;;;16.96;53.69
66857;BME280;53766;50.280;19.160;2023-10-09T02:31:40;99206.50;;;16.96;53.65
66857;BME280;53766;50.280;19.160;2023-10-09T02:34:09;99210.19;;;16.95;53.70
66857;BME280;53766;50.280;19.160;2023-10-09T02:36:37;99217.16;;;16.96;53.71
66857;BME280;53766;50.280;19.160;2023-10-09T02:39:16;99210.19;;;16.95;53.55
66857;BME280;53766;50.280;19.160;2023-10-09T02:42:06;99197.69;;;16.95;53.60
66857;BME280;53766;50.280;19.160;2023-10-09T02:44:47;99192.56;;;16.94;53.78
66857;BME280;53766;50.280;19.160;2023-10-09T02:47:17;99184.56;;;16.94;53.66
66857;BME280;53766;50.280;19.160;2023-10-09T02:49:51;99198.72;;;16.94;53.45
66857;BME280;53766;50.280;19.160;2023-10-09T02:52:18;99208.50;;;16.94;53.69
66857;BME280;53766;50.280;19.160;2023-10-09T02:54:46;99205.19;;;16.92;53.67
66857;BME280;53766;50.280;19.160;2023-10-09T02:57:14;99208.50;;;16.94;53.71
66857;BME280;53766;50.280;19.160;2023-10-09T02:59:51;99201.56;;;16.93;53.60
66857;BME280;53766;50.280;19.160;2023-10-09T03:02:18;99193.56;;;16.93;53.54
66857;BME280;53766;50.280;19.160;2023-10-09T03:04:46;99194.56;;;16.92;53.75
66857;BME280;53766;50.280;19.160;2023-10-09T03:07:13;99198.88;;;16.93;53.77
66857;BME280;53766;50.280;19.160;2023-10-09T03:09:41;99182.28;;;16.91;53.69
66857;BME280;53766;50.280;19.160;2023-10-09T03:12:08;99182.28;;;16.91;53.48
66857;BME280;53766;50.280;19.160;2023-10-09T03:14:46;99178.59;;;16.92;53.75
66857;BME280;53766;50.280;19.160;2023-10-09T03:17:13;99165.47;;;16.90;53.64
66857;BME280;53766;50.280;19.160;2023-10-09T03:19:41;99182.28;;;16.91;53.76
66857;BME280;53766;50.280;19.160;2023-10-09T03:22:10;99172.63;;;16.90;53.62
66857;BME280;53766;50.280;19.160;2023-10-09T03:24:39;99160.16;;;16.90;53.72
66857;BME280;53766;50.280;19.160;2023-10-09T03:27:17;99165.47;;;16.90;53.78
66857;BME280;53766;50.280;19.160;2023-10-09T03:29:45;99164.00;;;16.88;53.71
66857;BME280;53766;50.280;19.160;2023-10-09T03:32:21;99163.81;;;16.89;53.68
66857;BME280;53766;50.280;19.160;2023-10-09T03:34:48;99160.34;;;16.89;53.63
66857;BME280;53766;50.280;19.160;2023-10-09T03:37:18;99149.69;;;16.89;53.58
66857;BME280;53766;50.280;19.160;2023-10-09T03:40:02;99141.72;;;16.89;53.67
66857;BME280;53766;50.280;19.160;2023-10-09T03:42:30;99127.75;;;16.86;53.53
66857;BME280;53766;50.280;19.160;2023-10-09T03:44:57;99121.44;;;16.88;53.69
66857;BME280;53766;50.280;19.160;2023-10-09T03:47:25;99124.09;;;16.88;53.58
66857;BME280;53766;50.280;19.160;2023-10-09T03:49:55;99125.09;;;16.86;53.70
66857;BME280;53766;50.280;19.160;2023-10-09T03:52:23;99119.78;;;16.86;53.62
66857;BME280;53766;50.280;19.160;2023-10-09T03:54:54;99122.44;;;16.86;53.70
66857;BME280;53766;50.280;19.160;2023-10-09T03:57:22;99119.78;;;16.86;53.61
66857;BME280;53766;50.280;19.160;2023-10-09T03:59:51;99127.75;;;16.86;53.67
66857;BME280;53766;50.280;19.160;2023-10-09T04:02:19;99121.59;;;16.86;53.67
66857;BME280;53766;50.280;19.160;2023-10-09T04:04:49;99122.44;;;16.86;53.71
66857;BME280;53766;50.280;19.160;2023-10-09T04:07:18;99120.78;;;16.85;53.64
66857;BME280;53766;50.280;19.160;2023-10-09T04:09:45;99105.66;;;16.86;53.76
66857;BME280;53766;50.280;19.160;2023-10-09T04:12:15;99103.97;;;16.85;53.76
66857;BME280;53766;50.280;19.160;2023-10-09T04:14:52;99098.66;;;16.85;53.76
66857;BME280;53766;50.280;19.160;2023-10-09T04:17:29;99103.16;;;16.84;53.77
66857;BME280;53766;50.280;19.160;2023-10-09T04:19:56;99097.84;;;16.84;53.69
66857;BME280;53766;50.280;19.160;2023-10-09T04:23:02;99093.34;;;16.85;53.68
66857;BME280;53766;50.280;19.160;2023-10-09T04:25:33;99092.50;;;16.84;53.72
66857;BME280;53766;50.280;19.160;2023-10-09T04:28:12;99092.50;;;16.84;53.73
66857;BME280;53766;50.280;19.160;2023-10-09T04:30:42;99087.19;;;16.84;53.84
66857;BME280;53766;50.280;19.160;2023-10-09T04:33:22;99084.69;;;16.83;53.83
66857;BME280;53766;50.280;19.160;2023-10-09T04:36:03;99079.38;;;16.83;53.72
66857;BME280;53766;50.280;19.160;2023-10-09T04:38:46;99063.25;;;16.84;53.62
66857;BME280;53766;50.280;19.160;2023-10-09T04:41:23;99052.78;;;16.83;53.75
66857;BME280;53766;50.280;19.160;2023-10-09T04:43:55;99051.97;;;16.82;53.76
66857;BME280;53766;50.280;19.160;2023-10-09T04:46:42;99046.63;;;16.82;53.71
66857;BME280;53766;50.280;19.160;2023-10-09T04:49:33;99045.00;;;16.81;53.84
66857;BME280;53766;50.280;19.160;2023-10-09T04:52:17;99041.31;;;16.82;53.84
66857;BME280;53766;50.280;19.160;2023-10-09T04:54:57;99040.50;;;16.82;53.77
66857;BME280;53766;50.280;19.160;2023-10-09T04:57:53;99018.41;;;16.81;53.73
66857;BME280;53766;50.280;19.160;2023-10-09T05:00:35;99023.72;;;16.81;53.80
66857;BME280;53766;50.280;19.160;2023-10-09T05:03:14;99018.41;;;16.81;53.79
66857;BME280;53766;50.280;19.160;2023-10-09T05:06:01;99020.22;;;16.81;53.90
66857;BME280;53766;50.280;19.160;2023-10-09T05:08:48;99011.09;;;16.75;53.39
66857;BME280;53766;50.280;19.160;2023-10-09T05:11:16;99010.44;;;16.73;52.93
66857;BME280;53766;50.280;19.160;2023-10-09T05:14:02;99009.78;;;16.71;53.11
66857;BME280;53766;50.280;19.160;2023-10-09T05:16:41;98999.97;;;16.72;53.02
66857;BME280;53766;50.280;19.160;2023-10-09T05:19:24;98997.31;;;16.72;53.13
66857;BME280;53766;50.280;19.160;2023-10-09T05:22:09;98984.84;;;16.72;53.15
66857;BME280;53766;50.280;19.160;2023-10-09T05:24:58;98988.34;;;16.73;53.17
66857;BME280;53766;50.280;19.160;2023-10-09T05:27:25;98976.84;;;16.72;53.21
66857;BME280;53766;50.280;19.160;2023-10-09T05:30:11;98974.19;;;16.72;53.18
66857;BME280;53766;50.280;19.160;2023-10-09T05:32:59;98972.38;;;16.73;53.31
66857;BME280;53766;50.280;19.160;2023-10-09T05:35:46;98966.22;;;16.72;53.38
66857;BME280;53766;50.280;19.160;2023-10-09T05:38:32;98961.75;;;16.73;53.42
66857;BME280;53766;50.280;19.160;2023-10-09T05:41:03;98961.75;;;16.73;53.38
66857;BME280;53766;50.280;19.160;2023-10-09T05:43:53;98957.25;;;16.73;53.43
66857;BME280;53766;50.280;19.160;2023-10-09T05:46:39;98949.28;;;16.73;53.44
66857;BME280;53766;50.280;19.160;2023-10-09T05:49:19;98954.59;;;16.73;53.54
66857;BME280;53766;50.280;19.160;2023-10-09T05:51:47;98955.41;;;16.74;53.53
66857;BME280;53766;50.280;19.160;2023-10-09T05:54:20;98967.88;;;16.73;53.54
66857;BME280;53766;50.280;19.160;2023-10-09T05:57:06;98969.53;;;16.74;53.58
66857;BME280;53766;50.280;19.160;2023-10-09T05:59:56;98979.34;;;16.74;53.53
66857;BME280;53766;50.280;19.160;2023-10-09T06:02:43;98979.34;;;16.74;53.57
66857;BME280;53766;50.280;19.160;2023-10-09T06:05:31;98983.84;;;16.73;53.57
66857;BME280;53766;50.280;19.160;2023-10-09T06:08:08;98995.31;;;16.74;53.69
66857;BME280;53766;50.280;19.160;2023-10-09T06:10:40;98996.13;;;16.74;53.58
66857;BME280;53766;50.280;19.160;2023-10-09T06:13:09;99006.75;;;16.74;53.70
66857;BME280;53766;50.280;19.160;2023-10-09T06:15:56;99006.75;;;16.74;53.75
66857;BME280;53766;50.280;19.160;2023-10-09T06:18:42;99006.75;;;16.74;53.67
66857;BME280;53766;50.280;19.160;2023-10-09T06:21:21;99005.94;;;16.74;53.65
66857;BME280;53766;50.280;19.160;2023-10-09T06:24:07;99010.44;;;16.73;53.69
66857;BME280;53766;50.280;19.160;2023-10-09T06:26:37;99007.63;;;16.75;53.73
66857;BME280;53766;50.280;19.160;2023-10-09T06:29:08;99012.09;;;16.74;53.85
66857;BME280;53766;50.280;19.160;2023-10-09T06:31:41;99017.41;;;16.74;53.80
66857;BME280;53766;50.280;19.160;2023-10-09T06:34:28;99022.06;;;16.72;53.65
66857;BME280;53766;50.280;19.160;2023-10-09T06:37:02;99011.25;;;16.74;53.79
66857;BME280;53766;50.280;19.160;2023-10-09T06:39:45;99013.94;;;16.74;53.71
66857;BME280;53766;50.280;19.160;2023-10-09T06:42:25;99020.06;;;16.74;53.92
66857;BME280;53766;50.280;19.160;2023-10-09T06:47:48;99030.72;;;16.74;54.05
66857;BME280;53766;50.280;19.160;2023-10-09T06:50:55;99028.03;;;16.74;54.01
66857;BME280;53766;50.280;19.160;2023-10-09T06:53:34;99014.75;;;16.74;53.98
66857;BME280;53766;50.280;19.160;2023-10-09T06:56:20;99016.41;;;16.75;54.15
66857;BME280;53766;50.280;19.160;2023-10-09T06:59:10;99002.28;;;16.75;54.31
66857;BME280;53766;50.280;19.160;2023-10-09T07:01:48;99014.56;;;16.76;54.23
66857;BME280;53766;50.280;19.160;2023-10-09T07:04:35;99013.75;;;16.75;54.50
66857;BME280;53766;50.280;19.160;2023-10-09T07:07:02;99024.41;;;16.75;54.61
66857;BME280;53766;50.280;19.160;2023-10-09T07:09:34;99019.72;;;16.77;54.67
66857;BME280;53766;50.280;19.160;2023-10-09T07:12:34;99016.25;;;16.77;55.06
66857;BME280;53766;50.280;19.160;2023-10-09T07:15:01;99013.38;;;16.78;55.24
66857;BME280;53766;50.280;19.160;2023-10-09T07:17:52;99007.06;;;16.79;55.03
66857;BME280;53766;50.280;19.160;2023-10-09T07:20:19;99004.41;;;16.79;55.21
66857;BME280;53766;50.280;19.160;2023-10-09T07:23:12;99004.41;;;16.79;55.25
66857;BME280;53766;50.280;19.160;2023-10-09T07:25:42;99002.75;;;16.78;55.39
66857;BME280;53766;50.280;19.160;2023-10-09T07:28:22;98988.44;;;16.79;55.57
66857;BME280;53766;50.280;19.160;2023-10-09T07:31:19;98987.47;;;16.80;55.86
66857;BME280;53766;50.280;19.160;2023-10-09T07:34:07;98979.47;;;16.80;55.96
66857;BME280;53766;50.280;19.160;2023-10-09T07:36:54;98978.50;;;16.81;56.07
66857;BME280;53766;50.280;19.160;2023-10-09T07:39:24;98975.84;;;16.81;56.11
66857;BME280;53766;50.280;19.160;2023-10-09T07:42:01;98980.13;;;16.82;56.05
66857;BME280;53766;50.280;19.160;2023-10-09T07:44:42;98988.13;;;16.82;56.17
66857;BME280;53766;50.280;19.160;2023-10-09T07:47:19;98991.78;;;16.81;56.10
66857;BME280;53766;50.280;19.160;2023-10-09T07:50:00;98988.13;;;16.82;56.03
66857;BME280;53766;50.280;19.160;2023-10-09T07:52:28;98988.13;;;16.82;56.04
66857;BME280;53766;50.280;19.160;2023-10-09T07:54:56;98993.44;;;16.82;56.10
66857;BME280;53766;50.280;19.160;2023-10-09T07:57:29;98991.78;;;16.81;55.97
66857;BME280;53766;50.280;19.160;2023-10-09T08:00:06;98993.44;;;16.82;55.84
66857;BME280;53766;50.280;19.160;2023-10-09T08:02:59;98970.50;;;16.81;55.85
66857;BME280;53766;50.280;19.160;2023-10-09T08:05:28;98969.50;;;16.82;55.85
66857;BME280;53766;50.280;19.160;2023-10-09T08:08:01;98957.22;;;16.81;55.87
66857;BME280;53766;50.280;19.160;2023-10-09T08:11:06;98944.72;;;16.82;55.80
66857;BME280;53766;50.280;19.160;2023-10-09T08:13:52;98943.91;;;16.81;55.86
66857;BME280;53766;50.280;19.160;2023-10-09T08:16:25;98938.59;;;16.81;55.83
66857;BME280;53766;50.280;19.160;2023-10-09T08:19:03;98930.63;;;16.81;55.87
66857;BME280;53766;50.280;19.160;2023-10-09T08:21:50;98924.28;;;16.82;55.78
66857;BME280;53766;50.280;19.160;2023-10-09T08:24:36;98913.63;;;16.82;55.75
66857;BME280;53766;50.280;19.160;2023-10-09T08:27:08;98902.00;;;16.83;55.82
66857;BME280;53766;50.280;19.160;2023-10-09T08:29:54;98891.16;;;16.85;55.81
66857;BME280;53766;50.280;19.160;2023-10-09T08:32:41;98881.34;;;16.85;55.93
66857;BME280;53766;50.280;19.160;2023-10-09T08:35:12;98876.03;;;16.85;55.69
66857;BME280;53766;50.280;19.160;2023-10-09T08:38:00;98876.69;;;16.88;55.95
66857;BME280;53766;50.280;19.160;2023-10-09T08:40:38;98880.16;;;16.88;55.92
66857;BME280;53766;50.280;19.160;2023-10-09T08:43:19;98872.19;;;16.88;55.84
66857;BME280;53766;50.280;19.160;2023-10-09T08:45:54;98852.75;;;16.88;55.94
66857;BME280;53766;50.280;19.160;2023-10-09T08:48:28;98837.59;;;16.88;55.99
66857;BME280;53766;50.280;19.160;2023-10-09T08:50:56;98825.09;;;16.89;55.81
66857;BME280;53766;50.280;19.160;2023-10-09T08:53:24;98824.28;;;16.88;55.93
66857;BME280;53766;50.280;19.160;2023-10-09T08:55:51;98823.47;;;16.88;55.75
66857;BME280;53766;50.280;19.160;2023-10-09T08:58:18;98828.59;;;16.89;55.86
66857;BME280;53766;50.280;19.160;2023-10-09T09:00:57;98824.28;;;16.88;55.73
66857;BME280;53766;50.280;19.160;2023-10-09T09:03:37;98820.81;;;16.88;55.82
66857;BME280;53766;50.280;19.160;2023-10-09T09:06:04;98821.81;;;16.86;56.02
66857;BME280;53766;50.280;19.160;2023-10-09T09:08:32;98819.97;;;16.87;55.94
66857;BME280;53766;50.280;19.160;2023-10-09T09:11:04;98826.13;;;16.88;55.84
66857;BME280;53766;50.280;19.160;2023-10-09T09:13:42;98819.16;;;16.86;55.97
66857;BME280;53766;50.280;19.160;2023-10-09T09:16:20;98819.16;;;16.86;55.90
66857;BME280;53766;50.280;19.160;2023-10-09T09:19:03;98818.16;;;16.88;55.87
66857;BME280;53766;50.280;19.160;2023-10-09T09:21:41;98809.31;;;16.87;55.87
66857;BME280;53766;50.280;19.160;2023-10-09T09:24:10;98797.88;;;16.86;55.72
66857;BME280;53766;50.280;19.160;2023-10-09T09:27:04;98787.22;;;16.86;55.86
66857;BME280;53766;50.280;19.160;2023-10-09T09:29:45;98795.22;;;16.86;55.92
66857;BME280;53766;50.280;19.160;2023-10-09T09:32:29;98794.22;;;16.88;55.77
66857;BME280;53766;50.280;19.160;2023-10-09T09:35:03;98784.56;;;16.86;55.93
66857;BME280;53766;50.280;19.160;2023-10-09T09:37:34;98783.56;;;16.88;55.79
66857;BME280;53766;50.280;19.160;2023-10-09T09:40:10;98783.56;;;16.88;55.82
66857;BME280;53766;50.280;19.160;2023-10-09T09:42:42;98781.91;;;16.86;55.81
66857;BME280;53766;50.280;19.160;2023-10-09T09:45:12;98787.22;;;16.86;55.90
66857;BME280;53766;50.280;19.160;2023-10-09T09:47:40;98781.91;;;16.86;55.68
66857;BME280;53766;50.280;19.160;2023-10-09T09:50:14;98781.91;;;16.86;55.75
66857;BME280;53766;50.280;19.160;2023-10-09T09:52:51;98776.59;;;16.86;55.69
66857;BME280;53766;50.280;19.160;2023-10-09T09:55:34;98764.31;;;16.85;55.61
66857;BME280;53766;50.280;19.160;2023-10-09T09:58:02;98755.31;;;16.86;55.76
66857;BME280;53766;50.280;19.160;2023-10-09T10:00:34;98763.28;;;16.86;55.82
66857;BME280;53766;50.280;19.160;2023-10-09T10:03:18;98765.13;;;16.86;55.67
66857;BME280;53766;50.280;19.160;2023-10-09T10:05:47;98763.28;;;16.86;55.71
66857;BME280;53766;50.280;19.160;2023-10-09T10:08:16;98778.25;;;16.88;55.61
66857;BME280;53766;50.280;19.160;2023-10-09T10:10:48;98786.41;;;16.86;55.66
66857;BME280;53766;50.280;19.160;2023-10-09T10:13:17;98774.94;;;16.85;55.65
66857;BME280;53766;50.280;19.160;2023-10-09T10:18:29;98783.94;;;16.84;55.73
66857;BME280;53766;50.280;19.160;2023-10-09T10:24:00;98761.00;;;16.83;55.63
66857;BME280;53766;50.280;19.160;2023-10-09T10:26:34;98756.50;;;16.84;55.61
66857;BME280;53766;50.280;19.160;2023-10-09T10:31:56;98745.03;;;16.83;55.55
66857;BME280;53766;50.280;19.160;2023-10-09T10:34:25;98745.03;;;16.83;55.57
66857;BME280;53766;50.280;19.160;2023-10-09T10:36:52;98729.91;;;16.84;55.55
66857;BME280;53766;50.280;19.160;2023-10-09T10:39:26;98736.03;;;16.84;55.46
66857;BME280;53766;50.280;19.160;2023-10-09T10:42:14;98728.06;;;16.84;55.53
66857;BME280;53766;50.280;19.160;2023-10-09T10:45:01;98728.06;;;16.84;55.47
66857;BME280;53766;50.280;19.160;2023-10-09T10:47:29;98727.25;;;16.84;55.55
66857;BME280;53766;50.280;19.160;2023-10-09T10:50:01;98722.75;;;16.84;55.54
66857;BME280;53766;50.280;19.160;2023-10-09T10:52:50;98710.47;;;16.83;55.63
66857;BME280;53766;50.280;19.160;2023-10-09T10:55:24;98691.00;;;16.83;55.54
66857;BME280;53766;50.280;19.160;2023-10-09T10:57:58;98688.34;;;16.83;55.48
66857;BME280;53766;50.280;19.160;2023-10-09T11:00:29;98688.34;;;16.83;55.49
66857;BME280;53766;50.280;19.160;2023-10-09T11:03:18;98684.03;;;16.82;55.42
66857;BME280;53766;50.280;19.160;2023-10-09T11:05:57;98683.22;;;16.81;55.46
66857;BME280;53766;50.280;19.160;2023-10-09T11:08:58;98669.94;;;16.81;55.44
66857;BME280;53766;50.280;19.160;2023-10-09T11:11:36;98647.81;;;16.81;55.46
66857;BME280;53766;50.280;19.160;2023-10-09T11:14:14;98649.66;;;16.80;55.48
66857;BME280;53766;50.280;19.160;2023-10-09T11:16:42;98649.66;;;16.80;55.47
66857;BME280;53766;50.280;19.160;2023-10-09T11:19:20;98643.50;;;16.80;55.45
66857;BME280;53766;50.280;19.160;2023-10-09T11:22:07;98646.16;;;16.80;55.38
66857;BME280;53766;50.280;19.160;2023-10-09T11:24:36;98645.31;;;16.79;55.15
66857;BME280;53766;50.280;19.160;2023-10-09T11:27:04;98647.97;;;16.79;55.39
66857;BME280;53766;50.280;19.160;2023-10-09T11:29:35;98641.84;;;16.79;55.43
66857;BME280;53766;50.280;19.160;2023-10-09T11:32:16;98634.03;;;16.77;55.33
66857;BME280;53766;50.280;19.160;2023-10-09T11:34:46;98637.34;;;16.79;55.36
66857;BME280;53766;50.280;19.160;2023-10-09T11:37:23;98641.00;;;16.78;55.41
66857;BME280;53766;50.280;19.160;2023-10-09T11:39:54;98649.81;;;16.79;55.49
66857;BME280;53766;50.280;19.160;2023-10-09T11:42:27;98641.00;;;16.78;55.31
66857;BME280;53766;50.280;19.160;2023-10-09T11:45:27;98630.34;;;16.78;55.52
66857;BME280;53766;50.280;19.160;2023-10-09T11:48:17;98624.22;;;16.78;55.39
66857;BME280;53766;50.280;19.160;2023-10-09T11:51:14;98615.41;;;16.77;55.40
66857;BME280;53766;50.280;19.160;2023-10-09T11:53:48;98615.41;;;16.77;55.24
66857;BME280;53766;50.280;19.160;2023-10-09T11:56:21;98612.75;;;16.77;55.28
66857;BME280;53766;50.280;19.160;2023-10-09T11:58:49;98619.09;;;16.76;55.33
66857;BME280;53766;50.280;19.160;2023-10-09T12:01:20;98627.91;;;16.77;55.33
66857;BME280;53766;50.280;19.160;2023-10-09T12:03:49;98631.38;;;16.77;55.38
66857;BME280;53766;50.280;19.160;2023-10-09T12:06:18;98630.75;;;16.75;55.35
66857;BME280;53766;50.280;19.160;2023-10-09T12:08:56;98620.09;;;16.75;55.34
66857;BME280;53766;50.280;19.160;2023-10-09T12:11:25;98628.09;;;16.75;55.29
66857;BME280;53766;50.280;19.160;2023-10-09T12:13:58;98623.75;;;16.74;55.32
66857;BME280;53766;50.280;19.160;2023-10-09T12:16:28;98624.59;;;16.75;55.44
66857;BME280;53766;50.280;19.160;2023-10-09T12:18:56;98624.59;;;16.75;55.02
66857;BME280;53766;50.280;19.160;2023-10-09T12:21:24;98620.91;;;16.76;55.30
66857;BME280;53766;50.280;19.160;2023-10-09T12:23:51;98618.44;;;16.74;55.33
66857;BME280;53766;50.280;19.160;2023-10-09T12:26:20;98613.13;;;16.74;55.28
66857;BME280;53766;50.280;19.160;2023-10-09T12:28:47;98614.78;;;16.75;55.21
66857;BME280;53766;50.280;19.160;2023-10-09T12:31:17;98607.81;;;16.74;55.35
66857;BME280;53766;50.280;19.160;2023-10-09T12:33:48;98602.47;;;16.74;55.19
66857;BME280;53766;50.280;19.160;2023-10-09T12:36:17;98599.81;;;16.74;55.35
66857;BME280;53766;50.280;19.160;2023-10-09T12:38:48;98602.47;;;16.74;55.17
66857;BME280;53766;50.280;19.160;2023-10-09T12:41:21;98606.16;;;16.73;55.29
66857;BME280;53766;50.280;19.160;2023-10-09T12:43:55;98618.44;;;16.74;55.21
66857;BME280;53766;50.280;19.160;2023-10-09T12:46:25;98622.13;;;16.73;55.20
66857;BME280;53766;50.280;19.160;2023-10-09T12:48:53;98611.50;;;16.73;55.29
66857;BME280;53766;50.280;19.160;2023-10-09T12:51:24;98611.50;;;16.73;55.24
66857;BME280;53766;50.280;19.160;2023-10-09T12:53:57;98609.81;;;16.72;55.16
66857;BME280;53766;50.280;19.160;2023-10-09T12:56:25;98610.69;;;16.73;55.29
66857;BME280;53766;50.280;19.160;2023-10-09T12:58:59;98615.16;;;16.72;55.18
66857;BME280;53766;50.280;19.160;2023-10-09T13:01:28;98621.31;;;16.73;55.20
66857;BME280;53766;50.280;19.160;2023-10-09T13:03:59;98620.47;;;16.72;55.27
66857;BME280;53766;50.280;19.160;2023-10-09T13:06:38;98613.50;;;16.71;55.26
66857;BME280;53766;50.280;19.160;2023-10-09T13:09:11;98606.34;;;16.72;55.32
66857;BME280;53766;50.280;19.160;2023-10-09T13:11:39;98601.84;;;16.72;55.47
66857;BME280;53766;50.280;19.160;2023-10-09T13:14:07;98604.50;;;16.72;55.24
66857;BME280;53766;50.280;19.160;2023-10-09T13:16:44;98596.75;;;16.71;55.19
66857;BME280;53766;50.280;19.160;2023-10-09T13:19:12;98589.56;;;16.71;55.21
66857;BME280;53766;50.280;19.160;2023-10-09T13:21:40;98584.25;;;16.71;55.32
66857;BME280;53766;50.280;19.160;2023-10-09T13:24:07;98584.44;;;16.70;55.28
66857;BME280;53766;50.280;19.160;2023-10-09T13:26:41;98570.16;;;16.71;55.25
66857;BME280;53766;50.280;19.160;2023-10-09T13:29:10;98569.34;;;16.70;55.26
66857;BME280;53766;50.280;19.160;2023-10-09T13:31:39;98567.66;;;16.69;55.27
66857;BME280;53766;50.280;19.160;2023-10-09T13:34:13;98563.16;;;16.70;55.23
66857;BME280;53766;50.280;19.160;2023-10-09T13:36:43;98563.16;;;16.70;55.30
66857;BME280;53766;50.280;19.160;2023-10-09T13:39:20;98551.72;;;16.69;55.27
66857;BME280;53766;50.280;19.160;2023-10-09T13:41:55;98557.03;;;16.69;55.16
66857;BME280;53766;50.280;19.160;2023-10-09T13:44:27;98555.41;;;16.68;55.12
66857;BME280;53766;50.280;19.160;2023-10-09T13:46:56;98560.72;;;16.68;55.13
66857;BME280;53766;50.280;19.160;2023-10-09T13:49:24;98562.34;;;16.69;55.03
66857;BME280;53766;50.280;19.160;2023-10-09T13:51:57;98569.50;;;16.69;55.14